FCBB

Maya-Maya Airport

Brazzaville, Congo
METAR FCBB 190700Z 24004KT 210V270 2800 BR SCT020 OVC024 21/19 Q1017 BECMG 1200 BR
Observed Flight Rules
Jul-19 @ 07:00 UTC (39 minutes ago) Instrument Flight Rules
Wind Visibility Clouds Conditions
240° at 4 knots 2,800 meters
  • Scattered at 2,000' AGL
  • Overcast at 2,400' AGL
  • Mist
Temperatures Readings
Current 21°C / 70°F
Dewpoint 19°C / 66°F
Humidity 88%
Altimeter 30.03" Hg
Pressure 1017 hPa
Elevation 316
METAR FCBB 190700Z 24004KT 210V270 2800 BR SCT020 OVC024 21/19 Q1017 BECMG 1200 BR
Observed Flight Rules
Jul-19 @ 07:00 UTC
(39 minutes ago)
IFR
Wind Visibility
240° at 4 knots 2,800 meters
Clouds
  • Scattered at 2,000' AGL
  • Overcast at 2,400' AGL
Conditions
  • Mist
Temperature Dewpoint
21°C / 70°F 19°C / 66°F
Humidity Altimeter Pressure
88% 30.03" Hg 1017 hPa